SWA946 KLAX-KOAK
Flight info
| Callsign | SWA946 |
|---|---|
| Flight time | 0h 52m |
| Altitude | 32000 |
| Route | LADYJ4 COREZ RGOOD EMZOH4 |
| Aircraft | B738/M-SDE2E3FGHIRWXY/LB1 |
Departure
| Time | 2026-04-21 05:11 |
|---|---|
| Airport | Los Angeles International Airport (KLAX) |
Arrival
| Time | 2026-04-21 06:03 |
|---|---|
| Airport | San Francisco Bay Oakland International Airport (KOAK) |
| Time | Latitude | Longitude | Altitude | Speed | Heading |
|---|---|---|---|---|---|
| 2026-04-21 04:49 | 33.94765 | -118.40061 | 124 ft | 0 kts | 242° |
| 2026-04-21 04:59 | 33.94768 | -118.40054 | 125 ft | 4 kts | 242° |
| 2026-04-21 04:59 | 33.94780 | -118.40028 | 121 ft | 3 kts | 261° |
| 2026-04-21 05:00 | 33.94775 | -118.40009 | 122 ft | 4 kts | 347° |
| 2026-04-21 05:00 | 33.94755 | -118.40009 | 121 ft | 4 kts | 5° |
| 2026-04-21 05:00 | 33.94743 | -118.40010 | 122 ft | 0 kts | 5° |
| 2026-04-21 05:05 | 33.94796 | -118.40006 | 122 ft | 11 kts | 2° |
| 2026-04-21 05:06 | 33.94850 | -118.40054 | 123 ft | 10 kts | 300° |
| 2026-04-21 05:06 | 33.94909 | -118.40064 | 123 ft | 10 kts | 50° |
| 2026-04-21 05:06 | 33.94929 | -118.39976 | 124 ft | 13 kts | 81° |
| 2026-04-21 05:06 | 33.94945 | -118.39934 | 124 ft | 0 kts | 47° |
| 2026-04-21 05:07 | 33.94949 | -118.39929 | 123 ft | 3 kts | 44° |
| 2026-04-21 05:07 | 33.95005 | -118.39914 | 124 ft | 8 kts | 349° |
| 2026-04-21 05:07 | 33.95039 | -118.39978 | 122 ft | 3 kts | 265° |
| 2026-04-21 05:10 | 33.95037 | -118.40001 | 122 ft | 16 kts | 264° |
| 2026-04-21 05:10 | 33.94994 | -118.40425 | 125 ft | 85 kts | 263° |
| 2026-04-21 05:10 | 33.94896 | -118.41373 | 125 ft | 140 kts | 263° |
| 2026-04-21 05:11 | 33.94768 | -118.42677 | 424 ft | 162 kts | 264° |
| 2026-04-21 05:11 | 33.94630 | -118.44084 | 1001 ft | 176 kts | 264° |
| 2026-04-21 05:11 | 33.94482 | -118.45588 | 1601 ft | 186 kts | 264° |
| 2026-04-21 05:11 | 33.94336 | -118.47152 | 2297 ft | 185 kts | 268° |
| 2026-04-21 05:12 | 33.94310 | -118.48771 | 2697 ft | 204 kts | 269° |
| 2026-04-21 05:12 | 33.94255 | -118.50559 | 2954 ft | 220 kts | 267° |
| 2026-04-21 05:12 | 33.94122 | -118.52456 | 3213 ft | 238 kts | 265° |
| 2026-04-21 05:12 | 33.93953 | -118.54517 | 3492 ft | 255 kts | 264° |
| 2026-04-21 05:13 | 33.93777 | -118.56682 | 4121 ft | 262 kts | 264° |
| 2026-04-21 05:13 | 33.93602 | -118.58876 | 4863 ft | 264 kts | 263° |
| 2026-04-21 05:13 | 33.93427 | -118.61081 | 5607 ft | 267 kts | 263° |
| 2026-04-21 05:13 | 33.93252 | -118.63301 | 6345 ft | 270 kts | 262° |
| 2026-04-21 05:14 | 33.93075 | -118.65555 | 7089 ft | 271 kts | 262° |
| 2026-04-21 05:14 | 33.92899 | -118.67827 | 7848 ft | 274 kts | 261° |
| 2026-04-21 05:14 | 33.92721 | -118.70121 | 8623 ft | 276 kts | 261° |
| 2026-04-21 05:14 | 33.92542 | -118.72426 | 9437 ft | 278 kts | 260° |
| 2026-04-21 05:15 | 33.92361 | -118.74753 | 10225 ft | 280 kts | 260° |
| 2026-04-21 05:15 | 33.92178 | -118.77099 | 10983 ft | 282 kts | 260° |
| 2026-04-21 05:15 | 33.91991 | -118.79477 | 11597 ft | 292 kts | 260° |
| 2026-04-21 05:15 | 33.91791 | -118.81972 | 11972 ft | 309 kts | 260° |
| 2026-04-21 05:16 | 33.91642 | -118.84669 | 12006 ft | 338 kts | 267° |
| 2026-04-21 05:16 | 33.91810 | -118.87603 | 12098 ft | 362 kts | 269° |
| 2026-04-21 05:16 | 33.91930 | -118.90668 | 12436 ft | 374 kts | 268° |
| 2026-04-21 05:16 | 33.92017 | -118.93733 | 13015 ft | 378 kts | 268° |
| 2026-04-21 05:17 | 33.92104 | -118.96907 | 13767 ft | 380 kts | 270° |
| 2026-04-21 05:17 | 33.92222 | -119.00099 | 14365 ft | 383 kts | 272° |
| 2026-04-21 05:17 | 33.92963 | -119.03217 | 15019 ft | 398 kts | 292° |
| 2026-04-21 05:17 | 33.94412 | -119.06098 | 15581 ft | 407 kts | 298° |
| 2026-04-21 05:18 | 33.95964 | -119.08978 | 16107 ft | 412 kts | 298° |
| 2026-04-21 05:18 | 33.97517 | -119.11900 | 16693 ft | 416 kts | 297° |
| 2026-04-21 05:18 | 33.99059 | -119.14861 | 17269 ft | 419 kts | 297° |
| 2026-04-21 05:18 | 34.00630 | -119.17840 | 17817 ft | 425 kts | 301° |
| 2026-04-21 05:19 | 34.02750 | -119.20400 | 18314 ft | 441 kts | 320° |
| 2026-04-21 05:19 | 34.05289 | -119.22515 | 18801 ft | 445 kts | 321° |
| 2026-04-21 05:19 | 34.06981 | -119.23911 | 19134 ft | 446 kts | 321° |
| 2026-04-21 05:19 | 34.10398 | -119.26759 | 19906 ft | 445 kts | 321° |
| 2026-04-21 05:20 | 34.12935 | -119.28904 | 20481 ft | 446 kts | 320° |
| 2026-04-21 05:20 | 34.14618 | -119.30341 | 20794 ft | 448 kts | 320° |
| 2026-04-21 05:20 | 34.17167 | -119.32531 | 21249 ft | 451 kts | 320° |
| 2026-04-21 05:20 | 34.19722 | -119.34736 | 21733 ft | 453 kts | 320° |
| 2026-04-21 05:21 | 34.22294 | -119.36958 | 22216 ft | 455 kts | 320° |
| 2026-04-21 05:21 | 34.24877 | -119.39191 | 22635 ft | 459 kts | 320° |
| 2026-04-21 05:21 | 34.27479 | -119.41441 | 23093 ft | 460 kts | 320° |
| 2026-04-21 05:21 | 34.30085 | -119.43695 | 23567 ft | 462 kts | 320° |
| 2026-04-21 05:22 | 34.32704 | -119.45962 | 23931 ft | 464 kts | 320° |
| 2026-04-21 05:22 | 34.35333 | -119.48239 | 24285 ft | 465 kts | 320° |
| 2026-04-21 05:22 | 34.37969 | -119.50524 | 24634 ft | 467 kts | 320° |
| 2026-04-21 05:22 | 34.40547 | -119.52749 | 24951 ft | 467 kts | 323° |
| 2026-04-21 05:23 | 34.43410 | -119.54673 | 25253 ft | 477 kts | 332° |
| 2026-04-21 05:23 | 34.46502 | -119.56200 | 25553 ft | 482 kts | 334° |
| 2026-04-21 05:23 | 34.49646 | -119.57637 | 25867 ft | 484 kts | 335° |
| 2026-04-21 05:23 | 34.52810 | -119.59064 | 26187 ft | 486 kts | 335° |
| 2026-04-21 05:24 | 34.55977 | -119.60519 | 26534 ft | 487 kts | 334° |
| 2026-04-21 05:24 | 34.59133 | -119.62003 | 26965 ft | 486 kts | 334° |
| 2026-04-21 05:24 | 34.62270 | -119.63507 | 27453 ft | 483 kts | 334° |
| 2026-04-21 05:24 | 34.65382 | -119.65016 | 27951 ft | 481 kts | 333° |
| 2026-04-21 05:25 | 34.68489 | -119.66533 | 28426 ft | 480 kts | 333° |
| 2026-04-21 05:25 | 34.71584 | -119.68048 | 28893 ft | 479 kts | 333° |
| 2026-04-21 05:25 | 34.74673 | -119.69559 | 29390 ft | 477 kts | 333° |
| 2026-04-21 05:25 | 34.77751 | -119.71066 | 29888 ft | 476 kts | 333° |
| 2026-04-21 05:26 | 34.80828 | -119.72572 | 30300 ft | 477 kts | 333° |
| 2026-04-21 05:26 | 34.83912 | -119.74082 | 30588 ft | 479 kts | 333° |
| 2026-04-21 05:26 | 34.87000 | -119.75596 | 30983 ft | 478 kts | 333° |
| 2026-04-21 05:26 | 34.90071 | -119.77099 | 31458 ft | 475 kts | 333° |
| 2026-04-21 05:27 | 34.93130 | -119.78598 | 31884 ft | 473 kts | 333° |
| 2026-04-21 05:27 | 34.96192 | -119.80102 | 32006 ft | 477 kts | 333° |
| 2026-04-21 05:27 | 35.02367 | -119.83139 | 32049 ft | 477 kts | 333° |
| 2026-04-21 05:28 | 35.08503 | -119.86157 | 32021 ft | 475 kts | 333° |
| 2026-04-21 05:28 | 35.14616 | -119.89180 | 32007 ft | 473 kts | 332° |
| 2026-04-21 05:29 | 35.20712 | -119.92205 | 32015 ft | 473 kts | 332° |
| 2026-04-21 05:29 | 35.26812 | -119.95239 | 32014 ft | 474 kts | 332° |
| 2026-04-21 05:30 | 35.32933 | -119.98288 | 32015 ft | 475 kts | 332° |
| 2026-04-21 05:30 | 35.39080 | -120.01353 | 32022 ft | 477 kts | 332° |
| 2026-04-21 05:31 | 35.45252 | -120.04436 | 32003 ft | 480 kts | 332° |
| 2026-04-21 05:31 | 35.51442 | -120.07533 | 32003 ft | 481 kts | 332° |
| 2026-04-21 05:32 | 35.57651 | -120.10643 | 32025 ft | 482 kts | 332° |
| 2026-04-21 05:32 | 35.63854 | -120.13754 | 32006 ft | 484 kts | 331° |
| 2026-04-21 05:33 | 35.70101 | -120.16895 | 31993 ft | 484 kts | 331° |
| 2026-04-21 05:33 | 35.76329 | -120.20033 | 32024 ft | 484 kts | 331° |
| 2026-04-21 05:34 | 35.82615 | -120.23205 | 32000 ft | 485 kts | 331° |
| 2026-04-21 05:34 | 35.88858 | -120.26360 | 31999 ft | 484 kts | 331° |
| 2026-04-21 05:35 | 35.91935 | -120.27911 | 31978 ft | 471 kts | 331° |
| 2026-04-21 05:35 | 35.94946 | -120.29429 | 31993 ft | 465 kts | 331° |
| 2026-04-21 05:35 | 36.00939 | -120.32470 | 32010 ft | 467 kts | 330° |
| 2026-04-21 05:36 | 36.06959 | -120.35537 | 31996 ft | 469 kts | 330° |
| 2026-04-21 05:36 | 36.12985 | -120.38607 | 31981 ft | 470 kts | 330° |
| 2026-04-21 05:37 | 36.19057 | -120.41699 | 31988 ft | 472 kts | 330° |
| 2026-04-21 05:37 | 36.25132 | -120.44801 | 31719 ft | 474 kts | 330° |
| 2026-04-21 05:38 | 36.28173 | -120.46355 | 31396 ft | 469 kts | 330° |
| 2026-04-21 05:38 | 36.31165 | -120.47882 | 30989 ft | 463 kts | 330° |
| 2026-04-21 05:38 | 36.34143 | -120.49393 | 30652 ft | 464 kts | 329° |
| 2026-04-21 05:38 | 36.37155 | -120.50948 | 30233 ft | 473 kts | 329° |
| 2026-04-21 05:39 | 36.40181 | -120.52511 | 29808 ft | 468 kts | 329° |
| 2026-04-21 05:39 | 36.43175 | -120.54044 | 29352 ft | 462 kts | 329° |
| 2026-04-21 05:39 | 36.46127 | -120.55556 | 28933 ft | 456 kts | 329° |
| 2026-04-21 05:39 | 36.49038 | -120.57050 | 28516 ft | 450 kts | 329° |
| 2026-04-21 05:40 | 36.51910 | -120.58528 | 28129 ft | 443 kts | 329° |
| 2026-04-21 05:40 | 36.54575 | -120.60286 | 27641 ft | 424 kts | 313° |
| 2026-04-21 05:40 | 36.56749 | -120.62677 | 27159 ft | 414 kts | 308° |
| 2026-04-21 05:40 | 36.58703 | -120.64925 | 26642 ft | 414 kts | 308° |
| 2026-04-21 05:41 | 36.60824 | -120.67349 | 26123 ft | 414 kts | 309° |
| 2026-04-21 05:41 | 36.62959 | -120.69761 | 25598 ft | 414 kts | 309° |
| 2026-04-21 05:41 | 36.65098 | -120.72158 | 25058 ft | 412 kts | 309° |
| 2026-04-21 05:41 | 36.67220 | -120.74513 | 24539 ft | 404 kts | 309° |
| 2026-04-21 05:42 | 36.69301 | -120.76815 | 24039 ft | 397 kts | 309° |
| 2026-04-21 05:42 | 36.71324 | -120.79112 | 23508 ft | 390 kts | 309° |
| 2026-04-21 05:42 | 36.73283 | -120.81275 | 22932 ft | 385 kts | 310° |
| 2026-04-21 05:42 | 36.75263 | -120.83465 | 22425 ft | 376 kts | 309° |
| 2026-04-21 05:43 | 36.77200 | -120.85610 | 21940 ft | 370 kts | 309° |
| 2026-04-21 05:43 | 36.79112 | -120.87724 | 21563 ft | 363 kts | 309° |
| 2026-04-21 05:43 | 36.80989 | -120.89797 | 21201 ft | 361 kts | 309° |
| 2026-04-21 05:43 | 36.82871 | -120.91882 | 20856 ft | 362 kts | 309° |
| 2026-04-21 05:44 | 36.84756 | -120.93976 | 20508 ft | 363 kts | 309° |
| 2026-04-21 05:44 | 36.86646 | -120.96078 | 20166 ft | 364 kts | 310° |
| 2026-04-21 05:44 | 36.88541 | -120.98186 | 19787 ft | 365 kts | 311° |
| 2026-04-21 05:44 | 36.90433 | -121.00288 | 19430 ft | 363 kts | 311° |
| 2026-04-21 05:45 | 36.92321 | -121.02387 | 19040 ft | 363 kts | 311° |
| 2026-04-21 05:45 | 36.94205 | -121.04484 | 18702 ft | 361 kts | 312° |
| 2026-04-21 05:45 | 36.96085 | -121.06575 | 18323 ft | 362 kts | 312° |
| 2026-04-21 05:45 | 36.97902 | -121.08603 | 17942 ft | 360 kts | 312° |
| 2026-04-21 05:46 | 36.99766 | -121.10686 | 17548 ft | 358 kts | 316° |
| 2026-04-21 05:46 | 37.01614 | -121.12746 | 17226 ft | 356 kts | 311° |
| 2026-04-21 05:46 | 37.03466 | -121.14810 | 16840 ft | 355 kts | 311° |
| 2026-04-21 05:46 | 37.05305 | -121.16863 | 16501 ft | 354 kts | 312° |
| 2026-04-21 05:47 | 37.07138 | -121.18911 | 16125 ft | 353 kts | 311° |
| 2026-04-21 05:47 | 37.08961 | -121.20957 | 15800 ft | 352 kts | 312° |
| 2026-04-21 05:47 | 37.10788 | -121.23002 | 15436 ft | 352 kts | 312° |
| 2026-04-21 05:47 | 37.12609 | -121.25040 | 15097 ft | 350 kts | 312° |
| 2026-04-21 05:48 | 37.14413 | -121.27084 | 14701 ft | 350 kts | 311° |
| 2026-04-21 05:48 | 37.16233 | -121.29190 | 14241 ft | 352 kts | 311° |
| 2026-04-21 05:48 | 37.18033 | -121.31289 | 13812 ft | 354 kts | 311° |
| 2026-04-21 05:48 | 37.19835 | -121.33395 | 13324 ft | 355 kts | 311° |
| 2026-04-21 05:49 | 37.21616 | -121.35472 | 12853 ft | 351 kts | 311° |
| 2026-04-21 05:49 | 37.23380 | -121.37531 | 12405 ft | 342 kts | 311° |
| 2026-04-21 05:49 | 37.25105 | -121.39534 | 11961 ft | 334 kts | 311° |
| 2026-04-21 05:49 | 37.26816 | -121.41450 | 11625 ft | 325 kts | 312° |
| 2026-04-21 05:50 | 37.28262 | -121.43569 | 11196 ft | 318 kts | 297° |
| 2026-04-21 05:50 | 37.29842 | -121.45545 | 10841 ft | 328 kts | 322° |
| 2026-04-21 05:50 | 37.31722 | -121.47209 | 10442 ft | 326 kts | 314° |
| 2026-04-21 05:50 | 37.33408 | -121.49119 | 10050 ft | 327 kts | 310° |
| 2026-04-21 05:51 | 37.35049 | -121.51080 | 9908 ft | 320 kts | 310° |
| 2026-04-21 05:51 | 37.36649 | -121.52982 | 9437 ft | 322 kts | 311° |
| 2026-04-21 05:51 | 37.38280 | -121.54909 | 8935 ft | 326 kts | 311° |
| 2026-04-21 05:51 | 37.39964 | -121.56844 | 8584 ft | 320 kts | 312° |
| 2026-04-21 05:52 | 37.41614 | -121.58664 | 8260 ft | 308 kts | 314° |
| 2026-04-21 05:52 | 37.43146 | -121.60447 | 7997 ft | 294 kts | 310° |
| 2026-04-21 05:52 | 37.44561 | -121.62218 | 7749 ft | 275 kts | 301° |
| 2026-04-21 05:52 | 37.45411 | -121.64215 | 7517 ft | 248 kts | 278° |
| 2026-04-21 05:53 | 37.46054 | -121.66210 | 7298 ft | 250 kts | 297° |
| 2026-04-21 05:53 | 37.47170 | -121.67870 | 7108 ft | 247 kts | 309° |
| 2026-04-21 05:53 | 37.48395 | -121.69366 | 6915 ft | 242 kts | 306° |
| 2026-04-21 05:53 | 37.49414 | -121.70968 | 6769 ft | 226 kts | 294° |
| 2026-04-21 05:54 | 37.50290 | -121.72582 | 6607 ft | 219 kts | 298° |
| 2026-04-21 05:54 | 37.51115 | -121.74123 | 6529 ft | 211 kts | 302° |
| 2026-04-21 05:54 | 37.52049 | -121.75567 | 6396 ft | 214 kts | 300° |
| 2026-04-21 05:54 | 37.52955 | -121.77101 | 6264 ft | 219 kts | 297° |
| 2026-04-21 05:55 | 37.53408 | -121.78834 | 6076 ft | 200 kts | 267° |
| 2026-04-21 05:55 | 37.53550 | -121.80582 | 5956 ft | 207 kts | 270° |
| 2026-04-21 05:55 | 37.53740 | -121.82429 | 5816 ft | 217 kts | 270° |
| 2026-04-21 05:55 | 37.53864 | -121.84344 | 5638 ft | 221 kts | 270° |
| 2026-04-21 05:56 | 37.54042 | -121.85638 | 5543 ft | 221 kts | 275° |
| 2026-04-21 05:56 | 37.54334 | -121.87502 | 5365 ft | 212 kts | 273° |
| 2026-04-21 05:56 | 37.54558 | -121.89287 | 5190 ft | 201 kts | 271° |
| 2026-04-21 05:56 | 37.54740 | -121.90977 | 5080 ft | 190 kts | 269° |
| 2026-04-21 05:57 | 37.54942 | -121.92619 | 4913 ft | 192 kts | 279° |
| 2026-04-21 05:57 | 37.55124 | -121.94248 | 4867 ft | 188 kts | 270° |
| 2026-04-21 05:57 | 37.55299 | -121.95907 | 4719 ft | 192 kts | 272° |
| 2026-04-21 05:57 | 37.55494 | -121.97572 | 4561 ft | 192 kts | 273° |
| 2026-04-21 05:58 | 37.55702 | -121.99228 | 4415 ft | 192 kts | 277° |
| 2026-04-21 05:58 | 37.56366 | -122.00703 | 4206 ft | 199 kts | 315° |
| 2026-04-21 05:58 | 37.57353 | -122.01894 | 3936 ft | 193 kts | 303° |
| 2026-04-21 05:58 | 37.58159 | -122.03219 | 3691 ft | 190 kts | 303° |
| 2026-04-21 05:59 | 37.58975 | -122.04513 | 3454 ft | 188 kts | 305° |
| 2026-04-21 05:59 | 37.59805 | -122.05789 | 3205 ft | 187 kts | 306° |
| 2026-04-21 05:59 | 37.60632 | -122.07044 | 2950 ft | 185 kts | 306° |
| 2026-04-21 06:00 | 37.62236 | -122.09465 | 2460 ft | 174 kts | 305° |
| 2026-04-21 06:00 | 37.62999 | -122.10617 | 2233 ft | 169 kts | 306° |
| 2026-04-21 06:00 | 37.63743 | -122.11742 | 2012 ft | 166 kts | 306° |
| 2026-04-21 06:00 | 37.64494 | -122.12877 | 1782 ft | 167 kts | 307° |
| 2026-04-21 06:01 | 37.65239 | -122.14002 | 1562 ft | 167 kts | 307° |
| 2026-04-21 06:01 | 37.65981 | -122.15121 | 1330 ft | 165 kts | 307° |
| 2026-04-21 06:01 | 37.66713 | -122.16227 | 1113 ft | 164 kts | 308° |
| 2026-04-21 06:01 | 37.67433 | -122.17312 | 870 ft | 158 kts | 309° |
| 2026-04-21 06:02 | 37.68119 | -122.18347 | 705 ft | 149 kts | 308° |
| 2026-04-21 06:02 | 37.68776 | -122.19341 | 493 ft | 149 kts | 308° |
| 2026-04-21 06:02 | 37.69430 | -122.20324 | 278 ft | 143 kts | 308° |
| 2026-04-21 06:02 | 37.70058 | -122.21280 | 82 ft | 141 kts | 307° |
| 2026-04-21 06:03 | 37.70657 | -122.22182 | 11 ft | 123 kts | 307° |
| 2026-04-21 06:03 | 37.71131 | -122.22900 | 9 ft | 86 kts | 309° |
| 2026-04-21 06:03 | 37.71377 | -122.23272 | 7 ft | 23 kts | 310° |
| 2026-04-21 06:03 | 37.71514 | -122.23476 | 6 ft | 34 kts | 310° |
| 2026-04-21 06:04 | 37.71677 | -122.23722 | 7 ft | 40 kts | 309° |
| 2026-04-21 06:04 | 37.71848 | -122.23975 | 9 ft | 27 kts | 310° |
| 2026-04-21 06:04 | 37.71945 | -122.24031 | 8 ft | 13 kts | 38° |
| 2026-04-21 06:04 | 37.72000 | -122.23957 | 8 ft | 9 kts | 82° |
| 2026-04-21 06:05 | 37.71969 | -122.23886 | 8 ft | 10 kts | 129° |
| 2026-04-21 06:05 | 37.71910 | -122.23793 | 8 ft | 16 kts | 124° |
| 2026-04-21 06:05 | 37.71852 | -122.23670 | 8 ft | 19 kts | 121° |
| 2026-04-21 06:05 | 37.71783 | -122.23529 | 10 ft | 19 kts | 122° |
| 2026-04-21 06:06 | 37.71712 | -122.23395 | 8 ft | 18 kts | 128° |
| 2026-04-21 06:06 | 37.71626 | -122.23265 | 8 ft | 23 kts | 130° |
| 2026-04-21 06:06 | 37.71521 | -122.23106 | 8 ft | 23 kts | 130° |
| 2026-04-21 06:06 | 37.71417 | -122.22951 | 8 ft | 22 kts | 130° |
| 2026-04-21 06:07 | 37.71317 | -122.22801 | 8 ft | 22 kts | 130° |
| 2026-04-21 06:07 | 37.71220 | -122.22657 | 9 ft | 22 kts | 130° |
| 2026-04-21 06:07 | 37.71123 | -122.22511 | 8 ft | 17 kts | 130° |
| 2026-04-21 06:07 | 37.71142 | -122.22391 | 10 ft | 16 kts | 40° |
| 2026-04-21 06:08 | 37.71227 | -122.22302 | 10 ft | 16 kts | 39° |
| 2026-04-21 06:08 | 37.71289 | -122.22202 | 8 ft | 15 kts | 92° |
| 2026-04-21 06:08 | 37.71232 | -122.22098 | 9 ft | 14 kts | 130° |
| 2026-04-21 06:08 | 37.71168 | -122.22005 | 8 ft | 14 kts | 130° |
| 2026-04-21 06:09 | 37.71106 | -122.21911 | 8 ft | 14 kts | 130° |
| 2026-04-21 06:09 | 37.71079 | -122.21819 | 8 ft | 10 kts | 85° |
| 2026-04-21 06:09 | 37.71077 | -122.21737 | 8 ft | 8 kts | 99° |
| 2026-04-21 06:09 | 37.71074 | -122.21713 | 8 ft | 1 kts | 100° |
| 2026-04-21 06:10 | 37.71073 | -122.21709 | 8 ft | 1 kts | 100° |
| 2026-04-21 06:10 | 37.71073 | -122.21705 | 8 ft | 0 kts | 100° |